Time;durP1;ratioP1;P1;durP2;ratioP2;P2;SDS_P1;SDS_P2;PMS_P1;PMS_P2;Temp;Humidity;BMP_temperature;BMP_pressure;BME280_temperature;BME280_humidity;BME280_pressure;Samples;Min_cycle;Max_cycle;Signal;HPM_P1;HPM_P2
2022/07/17 00:00:24;;;;;;;4.22;1.00;;;14.90;96.40;;;14.29;100.00;98421.50;5024841;28;20527;-63
2022/07/17 00:02:51;;;;;;;4.18;0.85;;;14.90;96.60;;;14.26;100.00;98418.19;5024652;28;20481;-63
2022/07/17 00:05:19;;;;;;;3.85;0.90;;;14.90;96.90;;;14.25;100.00;98421.69;5023005;28;20053;-63
2022/07/17 00:07:49;;;;;;;2.50;0.90;;;14.80;97.20;;;14.33;100.00;98423.06;5025447;28;20088;-63
2022/07/17 00:10:17;;;;;;;4.72;0.80;;;14.80;97.40;;;14.26;100.00;98415.59;5025682;28;20052;-63
2022/07/17 00:12:45;;;;;;;1.83;0.60;;;14.90;97.40;;;14.00;100.00;98418.41;5009857;28;20060;-62
2022/07/17 00:15:12;;;;;;;3.88;0.90;;;14.80;97.60;;;14.02;100.00;98427.00;5026464;28;20132;-62
2022/07/17 00:17:39;;;;;;;3.83;0.90;;;14.70;97.80;;;14.02;100.00;98416.56;5024741;28;20045;-62
2022/07/17 00:20:08;;;;;;;3.28;1.05;;;14.70;98.10;;;13.94;100.00;98412.59;5025321;28;20053;-62
2022/07/17 00:22:36;;;;;;;4.90;1.10;;;14.60;98.50;;;13.95;100.00;98412.53;5024176;28;20077;-62
2022/07/17 00:25:04;;;;;;;3.75;1.00;;;14.60;98.80;;;13.98;100.00;98414.16;5003999;28;20143;-61
2022/07/17 00:27:32;;;;;;;2.33;0.95;;;14.60;99.20;;;13.69;100.00;98416.25;5023039;28;20143;-63
2022/07/17 00:30:00;;;;;;;3.72;1.02;;;14.40;99.50;;;13.81;100.00;98409.66;5022241;28;20128;-63
2022/07/17 00:32:28;;;;;;;7.05;1.00;;;14.40;99.90;;;13.84;100.00;98417.34;5025458;28;20508;-62
2022/07/17 00:34:56;;;;;;;1.98;0.80;;;14.40;99.90;;;13.96;100.00;98416.00;5025823;28;20053;-62
2022/07/17 00:37:23;;;;;;;2.85;0.82;;;14.40;99.90;;;13.93;100.00;98411.72;5020520;28;20104;-63
2022/07/17 00:39:50;;;;;;;2.80;0.77;;;14.40;99.90;;;13.64;100.00;98405.16;5027265;28;20053;-63
2022/07/17 00:42:18;;;;;;;5.50;0.82;;;14.40;99.90;;;13.70;100.00;98407.50;5024671;28;20178;-62
2022/07/17 00:44:45;;;;;;;4.00;1.08;;;14.40;99.90;;;13.62;100.00;98406.97;5021367;28;20149;-62
2022/07/17 00:47:19;;;;;;;2.47;0.80;;;14.30;99.90;;;13.35;100.00;98409.81;5023757;28;20720;-62
2022/07/17 00:49:47;;;;;;;3.47;0.88;;;14.20;99.90;;;13.37;100.00;98407.16;5023900;28;20063;-62
2022/07/17 00:52:15;;;;;;;5.28;0.70;;;14.10;99.90;;;13.23;100.00;98417.22;5008176;28;20361;-62
2022/07/17 00:54:47;;;;;;;4.55;1.17;;;14.00;99.90;;;13.23;100.00;98406.78;5025736;28;20048;-63
2022/07/17 00:57:26;;;;;;;7.63;1.70;;;13.90;99.90;;;13.21;100.00;98403.44;5010157;28;20678;-62
2022/07/17 00:59:53;;;;;;;2.42;0.85;;;13.90;99.90;;;13.20;100.00;98405.16;5025240;28;20075;-62
2022/07/17 01:02:22;;;;;;;2.80;0.80;;;13.90;99.90;;;13.22;100.00;98402.50;5022808;28;20057;-59
2022/07/17 01:04:49;;;;;;;2.92;0.73;;;13.90;99.90;;;13.16;100.00;98396.63;5025736;28;20492;-63
2022/07/17 01:07:16;;;;;;;2.42;0.90;;;13.90;99.90;;;13.17;100.00;98403.53;5021148;28;20128;-63
2022/07/17 01:09:43;;;;;;;5.32;0.95;;;13.90;99.90;;;13.18;100.00;98404.38;5025109;28;20046;-62
2022/07/17 01:12:10;;;;;;;3.45;0.90;;;13.90;99.90;;;13.09;100.00;98400.41;5023945;28;20049;-62
2022/07/17 01:14:38;;;;;;;1.77;0.80;;;13.80;99.90;;;13.02;100.00;98404.13;5024586;28;20416;-63
2022/07/17 01:17:06;;;;;;;3.25;0.98;;;13.70;99.90;;;13.02;100.00;98403.28;5008183;28;20137;-62
2022/07/17 01:19:32;;;;;;;4.32;0.90;;;13.70;99.90;;;12.97;100.00;98406.91;5024987;28;20134;-63
2022/07/17 01:22:00;;;;;;;3.67;1.00;;;13.60;99.90;;;12.87;100.00;98410.81;5022443;28;20129;-62
2022/07/17 01:24:27;;;;;;;3.33;0.95;;;13.50;99.90;;;12.81;100.00;98412.78;5023163;28;20103;-61
2022/07/17 01:26:54;;;;;;;5.03;1.10;;;13.40;99.90;;;12.71;100.00;98415.75;5020491;28;20067;-61
2022/07/17 01:29:21;;;;;;;4.90;0.88;;;13.40;99.90;;;12.54;100.00;98415.53;5021437;28;20237;-63
2022/07/17 01:31:49;;;;;;;2.72;0.95;;;13.30;99.90;;;12.49;100.00;98417.44;5023950;28;20523;-61
2022/07/17 01:34:16;;;;;;;2.92;1.00;;;13.30;99.90;;;12.65;100.00;98420.34;5024548;28;20045;-62
2022/07/17 01:36:43;;;;;;;3.10;0.98;;;13.20;99.90;;;12.64;100.00;98418.66;5021271;28;20045;-61
2022/07/17 01:39:11;;;;;;;3.20;0.80;;;13.20;99.90;;;12.67;100.00;98415.94;5021800;28;20044;-62
2022/07/17 01:41:38;;;;;;;3.22;0.75;;;13.20;99.90;;;12.70;100.00;98421.00;5022269;28;20042;-62
2022/07/17 01:44:07;;;;;;;3.90;1.10;;;13.30;99.90;;;12.62;100.00;98418.69;5003935;28;20174;-60
2022/07/17 01:46:34;;;;;;;5.93;0.93;;;13.30;99.90;;;12.52;100.00;98417.34;5022496;28;20133;-61
2022/07/17 01:49:02;;;;;;;6.45;1.02;;;13.20;99.90;;;12.43;100.00;98420.28;5021382;28;20146;-62
2022/07/17 01:51:29;;;;;;;4.15;0.77;;;13.20;99.90;;;12.46;100.00;98415.81;5022712;28;20045;-63
2022/07/17 01:53:58;;;;;;;10.20;1.10;;;13.10;99.90;;;12.33;100.00;98412.81;5025508;28;20061;-63
2022/07/17 01:56:25;;;;;;;2.90;1.00;;;13.00;99.90;;;12.18;100.00;98402.97;5024332;28;20049;-62
2022/07/17 01:58:52;;;;;;;3.53;1.13;;;13.00;99.90;;;12.18;100.00;98407.28;5020770;28;20085;-62
2022/07/17 02:01:19;;;;;;;2.97;0.70;;;12.90;99.90;;;12.30;100.00;98402.50;5023028;28;20259;-62
2022/07/17 02:03:46;;;;;;;3.63;0.90;;;13.00;99.90;;;12.27;100.00;98402.63;5025421;28;20115;-62
2022/07/17 02:06:13;;;;;;;3.47;0.80;;;13.00;99.90;;;12.01;100.00;98408.75;5022363;28;20045;-63
2022/07/17 02:08:41;;;;;;;3.15;0.80;;;12.80;99.90;;;11.95;100.00;98405.50;5023456;28;20636;-63
2022/07/17 02:11:08;;;;;;;4.40;0.80;;;12.70;99.90;;;11.91;100.00;98407.38;5024230;28;20045;-62
2022/07/17 02:13:35;;;;;;;2.28;0.82;;;12.70;99.90;;;12.05;100.00;98409.50;5022143;28;20050;-61
2022/07/17 02:16:02;;;;;;;2.33;0.80;;;12.70;99.90;;;12.08;100.00;98398.97;5024134;28;20128;-61
2022/07/17 02:18:30;;;;;;;3.13;0.80;;;12.80;99.90;;;11.95;100.00;98401.19;5021315;28;20061;-62
2022/07/17 02:20:57;;;;;;;2.85;0.90;;;12.70;99.90;;;11.75;100.00;98395.78;5022664;28;20049;-62
2022/07/17 02:23:24;;;;;;;5.85;1.30;;;12.60;99.90;;;11.76;100.00;98402.66;5022212;28;20046;-62
2022/07/17 02:25:51;;;;;;;4.45;1.15;;;12.60;99.90;;;11.85;100.00;98403.19;5021794;28;20068;-62
2022/07/17 02:28:18;;;;;;;3.63;1.08;;;12.50;99.90;;;11.76;100.00;98400.91;5023805;28;20049;-62
2022/07/17 02:30:47;;;;;;;2.78;0.80;;;12.40;99.90;;;11.70;100.00;98403.75;5023686;28;20147;-63
2022/07/17 02:33:14;;;;;;;4.68;0.90;;;12.40;99.90;;;11.65;100.00;98390.88;5022579;28;20042;-62
2022/07/17 02:35:41;;;;;;;4.18;1.10;;;12.40;99.90;;;11.56;100.00;98383.38;5023640;28;20398;-61
2022/07/17 02:38:08;;;;;;;3.20;0.90;;;12.30;99.90;;;11.54;100.00;98395.59;5021326;28;20041;-62
2022/07/17 02:40:35;;;;;;;3.75;0.95;;;12.20;99.90;;;11.38;100.00;98392.66;5022969;28;20140;-61
2022/07/17 02:43:02;;;;;;;2.38;1.00;;;12.10;99.90;;;11.47;100.00;98397.56;5024178;28;20132;-62
2022/07/17 02:45:29;;;;;;;4.15;1.00;;;12.20;99.90;;;11.61;100.00;98402.28;5024195;28;20046;-62
2022/07/17 02:47:56;;;;;;;5.57;1.10;;;12.20;99.90;;;11.61;100.00;98397.09;5021097;28;20065;-62
2022/07/17 02:50:23;;;;;;;2.53;0.90;;;12.20;99.90;;;11.62;100.00;98406.59;5022161;28;20060;-62
2022/07/17 02:52:50;;;;;;;3.60;1.05;;;12.20;99.90;;;11.58;100.00;98410.19;5020026;28;20050;-61
2022/07/17 02:55:18;;;;;;;4.95;1.60;;;12.30;99.90;;;11.61;100.00;98409.22;5023190;28;20120;-62
2022/07/17 02:57:47;;;;;;;2.58;0.80;;;12.30;99.90;;;11.69;100.00;98407.22;5021577;28;20065;-61
2022/07/17 03:00:17;;;;;;;2.78;0.82;;;12.20;99.90;;;11.50;100.00;98402.66;5024703;28;20089;-62
2022/07/17 03:02:46;;;;;;;9.45;1.00;;;12.20;99.90;;;11.42;100.00;98409.00;5024580;28;20156;-62
2022/07/17 03:05:15;;;;;;;3.67;0.95;;;12.10;99.90;;;11.46;100.00;98408.00;5021786;28;20139;-61
2022/07/17 03:07:44;;;;;;;3.22;0.90;;;12.10;99.90;;;11.40;100.00;98396.03;5021159;28;20085;-62
2022/07/17 03:10:11;;;;;;;3.80;1.20;;;12.10;99.90;;;11.37;100.00;98400.50;5028250;28;20049;-63
2022/07/17 03:12:39;;;;;;;4.65;0.82;;;12.10;99.90;;;11.17;100.00;98401.13;5023889;28;20461;-62
2022/07/17 03:15:07;;;;;;;6.68;1.00;;;12.00;99.90;;;11.10;100.00;98403.06;5027050;28;20045;-62
2022/07/17 03:17:34;;;;;;;2.13;0.80;;;11.80;99.90;;;11.15;100.00;98406.38;5027671;28;20132;-62
2022/07/17 03:20:01;;;;;;;4.32;0.98;;;11.80;99.90;;;11.19;100.00;98410.56;5026530;28;20212;-61
2022/07/17 03:22:28;;;;;;;4.75;1.10;;;11.80;99.90;;;11.19;100.00;98404.53;5026008;28;20057;-61
2022/07/17 03:24:55;;;;;;;4.75;0.90;;;11.80;99.90;;;11.13;100.00;98402.13;5027622;28;20128;-63
2022/07/17 03:27:22;;;;;;;3.55;0.98;;;11.80;99.90;;;11.16;100.00;98402.88;5026274;28;20132;-62
2022/07/17 03:29:49;;;;;;;2.53;1.08;;;11.80;99.90;;;11.23;100.00;98401.78;5026311;28;20133;-61
2022/07/17 03:32:16;;;;;;;4.55;0.82;;;11.80;99.90;;;11.28;100.00;98399.03;5025827;28;20049;-62
2022/07/17 03:34:43;;;;;;;3.42;0.90;;;11.90;99.90;;;11.13;100.00;98404.72;5026624;28;20461;-62
2022/07/17 03:37:11;;;;;;;7.25;1.10;;;11.90;99.90;;;11.22;100.00;98402.69;5025564;28;20107;-63
2022/07/17 03:39:38;;;;;;;4.07;1.10;;;11.80;99.90;;;11.12;100.00;98403.88;5028549;28;20160;-62
2022/07/17 03:42:05;;;;;;;2.67;0.90;;;11.80;99.90;;;11.10;100.00;98400.47;5027515;28;20138;-61
2022/07/17 03:44:32;;;;;;;5.40;1.02;;;11.80;99.90;;;11.09;100.00;98401.38;5023967;28;20121;-61
2022/07/17 03:46:59;;;;;;;3.92;1.10;;;11.80;99.90;;;11.08;100.00;98404.88;5026421;28;20067;-63
2022/07/17 03:49:26;;;;;;;3.38;0.93;;;11.80;99.90;;;11.18;100.00;98405.44;5026323;28;20065;-63
2022/07/17 03:51:52;;;;;;;5.60;1.00;;;11.80;99.90;;;11.14;100.00;98407.28;5025153;28;20133;-63
2022/07/17 03:54:19;;;;;;;4.65;0.90;;;11.80;99.90;;;11.21;100.00;98408.78;5028947;28;20821;-63
2022/07/17 03:56:47;;;;;;;4.03;1.20;;;11.90;99.90;;;11.20;100.00;98407.09;5026990;28;20051;-61
2022/07/17 03:59:14;;;;;;;6.13;1.08;;;11.90;99.90;;;11.33;100.00;98398.91;5023599;28;20642;-62
2022/07/17 04:01:40;;;;;;;4.28;0.80;;;12.00;99.90;;;11.41;100.00;98407.31;5028003;28;20037;-62
2022/07/17 04:04:07;;;;;;;3.92;0.82;;;12.00;99.90;;;11.46;100.00;98414.03;5026412;28;20045;-62
2022/07/17 04:06:34;;;;;;;2.75;1.00;;;12.10;99.90;;;11.49;100.00;98418.28;5025047;28;20045;-62
2022/07/17 04:09:03;;;;;;;3.72;0.90;;;12.20;99.90;;;11.56;100.00;98414.56;5026946;28;20049;-61
2022/07/17 04:11:30;;;;;;;3.50;0.80;;;12.20;99.90;;;11.56;100.00;98418.94;5025216;28;20042;-61
2022/07/17 04:13:57;;;;;;;2.95;0.77;;;12.20;99.90;;;11.62;100.00;98416.97;5024831;28;20253;-59
2022/07/17 04:16:24;;;;;;;4.78;0.90;;;12.30;99.90;;;11.59;100.00;98414.50;5023820;28;20041;-60
2022/07/17 04:18:51;;;;;;;4.68;1.00;;;12.30;99.90;;;11.57;100.00;98421.50;5007182;28;20042;-61
2022/07/17 04:21:19;;;;;;;2.65;0.80;;;12.30;99.90;;;11.69;100.00;98415.03;5023867;28;20387;-62
2022/07/17 04:23:46;;;;;;;2.78;0.77;;;12.30;99.90;;;11.72;100.00;98415.78;5024284;28;20077;-62
2022/07/17 04:26:13;;;;;;;6.45;1.10;;;12.40;99.90;;;11.72;100.00;98417.50;5024981;28;20053;-62
2022/07/17 04:28:40;;;;;;;2.58;0.73;;;12.50;99.90;;;11.85;100.00;98421.41;5026388;28;20049;-62
2022/07/17 04:31:07;;;;;;;4.15;0.95;;;12.60;99.90;;;11.74;100.00;98418.31;5023329;28;20572;-63
2022/07/17 04:33:34;;;;;;;2.70;0.82;;;12.60;99.90;;;11.90;100.00;98421.28;5024451;28;20048;-63
2022/07/17 04:36:02;;;;;;;8.38;1.08;;;12.60;99.90;;;11.84;100.00;98421.47;5024932;28;20049;-61
2022/07/17 04:38:29;;;;;;;4.57;1.00;;;12.50;99.90;;;11.92;100.00;98420.31;5024816;28;20136;-62
2022/07/17 04:40:56;;;;;;;5.75;1.30;;;12.60;99.90;;;12.10;100.00;98424.03;5022649;28;20049;-61
2022/07/17 04:43:23;;;;;;;2.63;0.75;;;12.70;99.90;;;11.98;100.00;98434.03;5020998;28;20478;-61
2022/07/17 04:45:51;;;;;;;2.38;0.80;;;12.80;99.90;;;12.00;100.00;98434.84;5024026;28;20129;-61
2022/07/17 04:48:17;;;;;;;4.68;0.85;;;12.80;99.90;;;12.08;100.00;98430.19;5022419;28;20053;-60
2022/07/17 04:50:45;;;;;;;5.75;1.13;;;12.90;99.90;;;12.03;100.00;98434.72;5023329;28;20152;-60
2022/07/17 04:53:12;;;;;;;3.50;0.82;;;13.00;99.90;;;12.06;100.00;98432.84;5024161;28;20416;-62
2022/07/17 04:55:39;;;;;;;2.08;0.80;;;13.00;99.90;;;12.02;100.00;98428.69;5024943;28;20049;-58
2022/07/17 04:58:06;;;;;;;4.38;0.95;;;12.90;99.90;;;12.09;100.00;98434.53;5021510;28;20050;-59
2022/07/17 05:00:33;;;;;;;4.30;1.10;;;12.90;99.90;;;12.16;100.00;98432.53;5025996;28;20148;-60
2022/07/17 05:03:00;;;;;;;3.08;0.70;;;12.90;99.90;;;12.26;100.00;98431.31;5007888;28;20063;-62
2022/07/17 05:05:27;;;;;;;5.65;1.20;;;13.00;99.90;;;12.36;100.00;98440.47;5023656;28;20050;-61
2022/07/17 05:07:54;;;;;;;3.97;0.90;;;13.10;99.90;;;12.50;100.00;98445.22;5024744;28;20148;-62
2022/07/17 05:10:21;;;;;;;5.80;1.00;;;13.20;99.90;;;12.50;100.00;98450.41;5025174;28;20041;-59
2022/07/17 05:12:53;;;;;;;10.88;1.45;;;13.30;99.90;;;12.60;100.00;98456.13;5025064;28;20042;-63
2022/07/17 05:15:20;;;;;;;4.75;1.00;;;13.40;99.90;;;12.80;100.00;98448.44;5023915;28;20041;-61
2022/07/17 05:17:47;;;;;;;3.25;0.80;;;13.50;99.90;;;13.04;100.00;98441.41;5022465;28;20038;-61
2022/07/17 05:20:14;;;;;;;2.78;0.90;;;13.70;99.90;;;13.14;100.00;98447.97;5025391;28;20051;-64
2022/07/17 05:22:41;;;;;;;4.18;1.02;;;13.90;99.90;;;13.12;100.00;98452.41;5024525;28;20096;-64
2022/07/17 05:25:09;;;;;;;3.55;0.90;;;14.00;99.90;;;13.25;100.00;98450.19;5019046;28;20070;-61
2022/07/17 05:27:36;;;;;;;3.45;0.90;;;14.10;99.90;;;13.31;100.00;98449.94;5024987;28;20041;-62
2022/07/17 05:30:03;;;;;;;4.80;0.80;;;14.20;99.90;;;13.44;100.00;98441.66;5020452;28;20533;-62
2022/07/17 05:32:30;;;;;;;3.72;1.00;;;14.30;99.90;;;13.60;100.00;98442.72;5024061;28;20124;-61
2022/07/17 05:34:57;;;;;;;2.90;0.90;;;14.40;99.90;;;13.80;100.00;98457.56;5026807;28;20045;-60
2022/07/17 05:37:24;;;;;;;5.72;1.17;;;14.60;99.90;;;13.91;100.00;98447.53;5021418;28;20052;-62
2022/07/17 05:39:51;;;;;;;3.10;0.95;;;14.80;99.90;;;14.11;100.00;98451.03;5026321;28;20152;-61
2022/07/17 05:42:18;;;;;;;5.32;0.90;;;15.00;99.90;;;14.20;100.00;98442.78;5027889;28;20128;-60
2022/07/17 05:44:45;;;;;;;4.13;1.02;;;15.20;99.90;;;14.36;100.00;98451.66;5026684;28;20468;-60
2022/07/17 05:47:12;;;;;;;2.00;0.70;;;15.30;99.90;;;14.41;100.00;98448.84;5026712;28;20108;-61
2022/07/17 05:49:39;;;;;;;3.95;0.98;;;15.50;99.90;;;14.61;100.00;98442.75;5024827;28;20255;-62
2022/07/17 05:52:06;;;;;;;5.30;0.90;;;15.60;99.90;;;14.74;100.00;98437.84;5023778;28;20121;-62
2022/07/17 05:54:33;;;;;;;4.57;1.20;;;15.60;99.90;;;14.82;100.00;98441.78;5024488;28;20128;-62
2022/07/17 05:57:01;;;;;;;5.75;1.02;;;15.80;99.90;;;14.82;100.00;98433.09;5021965;28;20119;-61
2022/07/17 05:59:36;;;;;;;3.58;1.00;;;15.90;99.90;;;15.06;100.00;98431.09;5025358;28;20402;-60
2022/07/17 06:02:03;;;;;;;3.85;0.90;;;16.00;99.90;;;15.17;100.00;98426.22;5007020;28;20057;-61
2022/07/17 06:04:30;;;;;;;5.85;1.00;;;16.20;99.90;;;15.40;100.00;98432.97;5023289;28;20135;-61
2022/07/17 06:06:57;;;;;;;3.75;0.73;;;16.30;99.90;;;15.44;100.00;98437.13;5021963;28;20083;-61
2022/07/17 06:09:24;;;;;;;3.45;0.82;;;16.50;99.90;;;15.60;100.00;98438.97;5021050;28;20128;-61
2022/07/17 06:11:51;;;;;;;3.95;0.90;;;16.70;99.90;;;15.72;100.00;98433.19;5025131;28;20059;-62
2022/07/17 06:14:19;;;;;;;6.10;1.00;;;16.80;99.90;;;15.78;100.00;98435.50;5025617;28;20124;-61
2022/07/17 06:16:46;;;;;;;2.83;0.77;;;16.80;99.90;;;16.01;100.00;98438.69;5024746;28;20372;-61
2022/07/17 06:19:13;;;;;;;4.20;1.20;;;17.00;99.90;;;16.08;100.00;98430.47;5024172;28;20065;-61
2022/07/17 06:21:40;;;;;;;2.47;0.70;;;17.20;99.90;;;16.28;100.00;98437.31;5023636;28;20092;-61
2022/07/17 06:24:07;;;;;;;4.55;0.80;;;17.30;99.90;;;16.45;100.00;98427.72;5009875;28;20108;-61
2022/07/17 06:26:34;;;;;;;3.13;0.77;;;17.50;99.90;;;16.58;100.00;98439.25;5025827;28;20136;-62
2022/07/17 06:29:01;;;;;;;3.15;0.60;;;17.60;99.90;;;16.75;100.00;98438.31;5008777;28;20089;-61
2022/07/17 06:31:28;;;;;;;3.75;0.70;;;17.70;99.90;;;16.88;100.00;98438.56;5027070;28;20046;-60
2022/07/17 06:33:55;;;;;;;5.93;0.85;;;17.90;99.90;;;16.93;100.00;98447.00;5023073;28;20045;-61
2022/07/17 06:36:23;;;;;;;7.30;1.00;;;18.00;99.90;;;17.05;100.00;98443.69;5020930;28;20085;-63
2022/07/17 06:38:50;;;;;;;2.42;0.70;;;18.10;99.70;;;17.35;100.00;98441.13;5020378;28;20045;-61
2022/07/17 06:41:16;;;;;;;6.32;1.10;;;18.20;99.90;;;17.32;100.00;98429.97;5025201;28;20159;-61
2022/07/17 06:43:43;;;;;;;5.38;0.70;;;18.30;99.20;;;17.38;100.00;98440.13;5027098;28;20714;-61
2022/07/17 06:46:10;;;;;;;4.28;0.70;;;18.50;99.60;;;17.46;100.00;98435.28;5027251;28;20568;-62
2022/07/17 06:48:37;;;;;;;5.00;0.90;;;18.60;98.90;;;17.70;100.00;98432.22;5027704;28;20072;-61
2022/07/17 06:51:05;;;;;;;2.05;0.60;;;18.70;98.90;;;17.69;100.00;98427.88;5026935;28;20678;-61
2022/07/17 06:53:32;;;;;;;1.88;0.60;;;18.80;98.40;;;17.97;100.00;98435.00;5008842;28;20124;-60
2022/07/17 06:55:58;;;;;;;2.97;0.70;;;18.90;98.90;;;18.00;100.00;98432.22;5026278;28;20446;-61
2022/07/17 06:58:25;;;;;;;4.45;0.85;;;19.00;98.20;;;17.95;100.00;98435.13;5026642;28;20582;-61
2022/07/17 07:00:52;;;;;;;2.83;0.77;;;19.10;98.10;;;17.94;100.00;98433.41;5070975;23;20445;-62
2022/07/17 07:03:20;;;;;;;4.95;0.70;;;19.10;97.90;;;18.11;100.00;98436.81;5025443;28;20192;-62
2022/07/17 07:05:47;;;;;;;5.20;0.70;;;19.10;97.60;;;18.27;100.00;98439.38;5067029;22;20485;-66
2022/07/17 07:08:14;;;;;;;3.22;0.73;;;19.30;97.50;;;18.34;100.00;98431.03;5036599;22;20041;-87
2022/07/17 07:10:42;;;;;;;6.50;0.85;;;19.30;96.60;;;18.29;100.00;98432.22;5010992;28;20427;-85
2022/07/17 07:13:24;;;;;;;4.05;0.80;;;19.30;95.90;;;18.21;100.00;98439.75;5004977;28;20061;-85
2022/07/17 07:16:05;;;;;;;4.18;0.70;;;19.30;96.00;;;18.43;100.00;98431.41;5009777;28;20420;-86
2022/07/17 07:18:36;;;;;;;2.97;0.60;;;19.40;96.00;;;18.71;100.00;98435.81;5035605;28;20690;-86
2022/07/17 07:21:04;;;;;;;2.85;0.70;;;19.60;96.10;;;18.77;100.00;98436.31;5018780;28;20392;-86
2022/07/17 07:23:32;;;;;;;5.40;0.68;;;19.80;96.00;;;18.84;100.00;98431.53;5049897;28;20099;-87
2022/07/17 07:26:00;;;;;;;2.97;0.63;;;19.90;95.20;;;18.89;100.00;98433.88;5015587;28;20448;-87
2022/07/17 07:28:27;;;;;;;6.47;0.80;;;19.90;95.30;;;19.07;100.00;98430.06;5047302;28;20049;-86
2022/07/17 07:30:54;;;;;;;4.40;0.80;;;20.00;94.90;;;18.96;100.00;98438.63;5031738;28;20056;-86
2022/07/17 07:33:22;;;;;;;2.40;0.70;;;20.00;94.60;;;19.11;100.00;98431.56;5026068;28;20057;-86
2022/07/17 07:35:55;;;;;;;4.18;0.70;;;20.10;94.60;;;19.32;100.00;98431.13;5046886;28;20053;-85
2022/07/17 07:38:23;;;;;;;6.25;0.93;;;20.20;94.60;;;19.44;100.00;98444.31;5045383;28;20568;-86
2022/07/17 07:41:00;;;;;;;5.68;0.80;;;20.30;94.20;;;19.58;100.00;98438.16;5048677;28;20448;-84
2022/07/17 07:43:28;;;;;;;4.10;0.95;;;20.40;93.80;;;19.58;100.00;98435.53;5034425;28;20048;-87
2022/07/17 07:45:55;;;;;;;5.38;0.77;;;20.50;93.50;;;19.73;100.00;98441.63;5040282;28;20072;-88
2022/07/17 07:48:22;;;;;;;2.97;0.52;;;20.60;92.80;;;19.89;100.00;98444.06;5040565;28;20049;-85
2022/07/17 07:50:52;;;;;;;3.10;0.80;;;20.80;93.70;;;20.15;100.00;98442.31;5051102;28;20135;-86
2022/07/17 07:53:26;;;;;;;6.07;0.70;;;21.00;93.50;;;20.06;100.00;98451.66;5045396;28;20076;-86
2022/07/17 07:55:53;;;;;;;4.47;0.80;;;21.20;93.50;;;20.20;100.00;98447.25;5041235;28;20085;-86
2022/07/17 07:58:21;;;;;;;3.75;0.88;;;21.20;93.30;;;20.28;100.00;98447.59;5027473;28;20045;-86
2022/07/17 08:00:48;;;;;;;2.85;0.80;;;21.30;93.00;;;20.29;100.00;98448.44;5050250;28;20115;-87
2022/07/17 08:03:17;;;;;;;3.08;0.60;;;21.30;92.90;;;20.22;100.00;98451.47;5047750;28;20451;-88
2022/07/17 08:05:51;;;;;;;2.80;0.68;;;21.40;92.40;;;20.36;100.00;98444.41;5031003;28;20057;-84
2022/07/17 08:08:20;;;;;;;4.55;0.70;;;21.50;92.60;;;20.34;100.00;98460.34;5027086;28;20493;-86
2022/07/17 08:10:49;;;;;;;3.05;0.75;;;21.40;92.30;;;20.39;100.00;98454.75;5047573;28;20103;-87
2022/07/17 08:13:17;;;;;;;5.53;0.80;;;21.50;91.90;;;20.79;100.00;98457.28;5053250;28;20042;-87
2022/07/17 08:15:46;;;;;;;3.85;0.60;;;21.60;92.00;;;20.58;100.00;98457.84;5032469;28;20139;-86
2022/07/17 08:18:14;;;;;;;3.80;0.60;;;21.80;91.60;;;20.73;100.00;98455.06;5024240;28;20092;-87
2022/07/17 08:20:44;;;;;;;4.95;0.80;;;21.70;91.20;;;20.76;100.00;98452.25;5022453;28;20122;-86
2022/07/17 08:23:12;;;;;;;3.55;0.80;;;21.80;91.30;;;20.89;100.00;98446.00;5021877;28;20040;-86
2022/07/17 08:25:39;;;;;;;2.60;0.70;;;21.80;90.80;;;21.06;100.00;98454.50;5013063;28;20614;-86
2022/07/17 08:28:06;;;;;;;3.53;0.70;;;21.90;90.70;;;21.13;100.00;98445.19;5039945;28;20073;-87
2022/07/17 08:33:06;;;;;;;1.75;0.60;;;22.10;90.50;;;21.68;100.00;98441.16;4939514;28;20056;-64
2022/07/17 08:35:35;;;;;;;2.50;0.60;;;22.30;90.50;;;21.91;100.00;98434.16;4957432;28;20087;-64
2022/07/17 08:38:02;;;;;;;2.60;0.60;;;22.50;90.10;;;21.60;100.00;98437.41;5002678;28;20514;-64
2022/07/17 08:40:34;;;;;;;2.80;0.70;;;22.50;88.20;;;21.76;100.00;98435.31;5019642;28;20076;-64
2022/07/17 08:43:06;;;;;;;7.82;0.60;;;22.70;88.20;;;22.28;100.00;98434.06;5019099;28;20679;-64
2022/07/17 08:45:34;;;;;;;3.38;0.77;;;;;;;22.13;100.00;98446.59;4990962;28;20128;-65
2022/07/17 08:50:35;;;;;;;6.05;0.70;;;23.20;88.20;;;23.06;100.00;98442.09;5083439;28;20077;-85
2022/07/17 08:53:03;;;;;;;3.20;0.70;;;23.60;87.60;;;22.75;100.00;98452.47;5013063;27;27214;-86
2022/07/17 08:55:34;;;;;;;1.43;0.50;;;23.70;84.60;;;22.50;100.00;98448.25;4937179;28;2617481;-86
2022/07/17 08:58:06;;;;;;;4.85;0.65;;;23.70;82.10;;;22.97;100.00;98451.63;5075549;28;20064;-85
2022/07/17 09:00:33;;;;;;;1.30;0.40;;;23.80;83.20;;;23.31;100.00;98448.91;5052496;28;20060;-86
2022/07/17 09:03:06;;;;;;;3.20;0.70;;;24.10;83.00;;;23.55;100.00;98446.09;5071170;28;20043;-86
2022/07/17 09:10:16;;;;;;;2.63;0.47;;;24.80;82.40;;;23.77;100.00;98443.38;4938407;29;20059;-86
2022/07/17 09:12:46;;;;;;;3.72;0.80;;;25.00;78.80;;;24.12;100.00;98430.78;4947699;28;20553;-86
2022/07/17 09:15:20;;;;;;;3.17;0.40;;;25.00;79.20;;;24.17;100.00;98432.06;4982878;28;20054;-86
2022/07/17 09:17:53;;;;;;;2.30;0.52;;;25.10;77.50;;;25.08;100.00;98429.56;4992710;28;20589;-87
2022/07/17 09:20:45;;;;;;;1.77;0.60;;;25.50;79.00;;;24.78;98.17;98417.16;4987847;28;20088;-86
2022/07/17 09:30:11;;;;;;;2.00;0.70;;;26.30;75.00;;;25.34;93.42;98406.00;4987466;28;20046;-65
2022/07/17 09:32:41;;;;;;;1.73;0.50;;;26.20;74.20;;;26.07;97.22;98397.59;4987855;28;20046;-65
2022/07/17 09:35:10;;;;;;;1.88;0.50;;;26.40;76.90;;;26.58;93.03;98399.00;4986025;28;20105;-67
2022/07/17 09:37:40;;;;;;;2.10;0.50;;;26.70;75.40;;;26.72;92.00;98400.34;5019613;28;20061;-67
2022/07/17 09:41:09;;;;;;;2.95;0.50;;;27.00;74.40;;;27.75;85.69;98403.59;5022747;28;20136;-67
2022/07/17 09:43:02;;;;;;;2.60;0.65;;;27.40;72.90;;;26.96;84.74;98399.81;5009939;28;20058;-67
2022/07/17 09:45:33;;;;;;;1.67;0.52;;;27.50;71.70;;;26.96;86.51;98404.28;5026798;28;20065;-67
2022/07/17 09:48:02;;;;;;;3.38;0.70;;;27.20;72.30;;;26.81;83.48;98399.44;5024254;28;20431;-67
2022/07/17 09:50:33;;;;;;;2.13;0.50;;;27.20;70.80;;;28.22;76.65;98391.78;5025145;28;20547;-66
2022/07/17 09:53:01;;;;;;;1.45;0.60;;;27.40;69.40;;;28.40;76.98;98403.25;5002379;28;20037;-65
2022/07/17 09:55:32;;;;;;;1.52;0.50;;;27.30;70.70;;;28.43;76.59;98404.75;5007634;28;20176;-64
2022/07/17 09:58:21;;;;;;;1.73;0.50;;;27.50;70.30;;;28.41;75.71;98396.06;5023339;28;20041;-66
2022/07/17 10:00:49;;;;;;;2.13;0.47;;;27.90;70.00;;;29.45;72.89;98394.97;5004346;28;20191;-66
2022/07/17 10:03:19;;;;;;;2.67;0.60;;;28.20;69.50;;;29.54;72.12;98402.00;5020755;28;20183;-66
2022/07/17 10:05:47;;;;;;;3.22;0.65;;;28.70;69.30;;;29.44;68.05;98398.63;5021569;28;20059;-66
2022/07/17 10:08:14;;;;;;;2.95;0.57;;;28.80;67.60;;;28.96;65.04;98409.00;5023437;28;20232;-66
2022/07/17 10:10:42;;;;;;;1.70;0.60;;;28.90;66.20;;;29.09;63.73;98409.44;5009738;28;20180;-66
2022/07/17 10:13:10;;;;;;;1.23;0.50;;;28.90;65.20;;;28.38;65.10;98415.91;5019088;28;20058;-67
2022/07/17 10:15:37;;;;;;;2.80;0.47;;;28.60;64.90;;;28.52;60.89;98415.34;5021526;28;20427;-64
2022/07/17 10:18:06;;;;;;;1.85;0.43;;;28.50;63.80;;;29.89;65.64;98410.72;5021197;28;20053;-63
2022/07/17 10:20:34;;;;;;;3.80;0.40;;;28.90;66.50;;;29.68;56.66;98413.91;5022059;28;20076;-65
2022/07/17 10:23:15;;;;;;;1.02;0.40;;;29.00;63.00;;;30.60;58.37;98406.44;5020950;28;20194;-64
2022/07/17 10:25:42;;;;;;;2.80;0.40;;;29.40;64.70;;;31.61;54.64;98407.44;5020327;28;20055;-64
2022/07/17 10:28:09;;;;;;;1.48;0.40;;;29.60;64.10;;;30.24;52.59;98409.50;5020737;28;20132;-65
2022/07/17 10:30:43;;;;;;;0.73;0.40;;;29.60;62.10;;;31.44;57.72;98404.88;5020830;28;20120;-64
2022/07/17 10:33:17;;;;;;;1.67;0.40;;;30.00;64.80;;;31.75;50.48;98401.31;5019989;28;20144;-64